Time;durP1;ratioP1;P1;durP2;ratioP2;P2;SDS_P1;SDS_P2;PMS_P1;PMS_P2;Temp;Humidity;BMP_temperature;BMP_pressure;BME280_temperature;BME280_humidity;BME280_pressure;Samples;Min_cycle;Max_cycle;Signal;HPM_P1;HPM_P2
2022/06/11 00:01:20;;;;;;;4.88;3.85;;;23.50;63.50;;;;;;5026683;28;20441;-58
2022/06/11 00:03:48;;;;;;;4.65;3.55;;;23.50;63.80;;;;;;5031270;28;20037;-58
2022/06/11 00:06:13;;;;;;;4.72;3.53;;;23.50;64.00;;;;;;5025973;28;20040;-58
2022/06/11 00:08:39;;;;;;;4.60;3.28;;;23.50;64.40;;;;;;5032643;28;20021;-58
2022/06/11 00:11:07;;;;;;;4.43;3.60;;;23.50;64.90;;;;;;5027319;28;20049;-58
2022/06/11 00:13:33;;;;;;;4.95;3.80;;;23.50;65.80;;;;;;5028908;28;20036;-58
2022/06/11 00:16:01;;;;;;;4.18;3.40;;;23.50;66.30;;;;;;5031944;28;20025;-58
2022/06/11 00:18:28;;;;;;;4.70;3.95;;;23.50;66.50;;;;;;5030085;28;20028;-58
2022/06/11 00:20:53;;;;;;;4.10;3.40;;;23.40;66.80;;;;;;5024219;28;20025;-58
2022/06/11 00:23:19;;;;;;;4.60;3.50;;;23.50;67.00;;;;;;5032753;28;20025;-58
2022/06/11 00:25:46;;;;;;;4.30;3.72;;;23.50;67.30;;;;;;5027290;28;20044;-58
2022/06/11 00:28:12;;;;;;;3.83;3.28;;;23.40;67.50;;;;;;5022402;28;20059;-57
2022/06/11 00:30:37;;;;;;;6.80;4.68;;;23.50;67.60;;;;;;5026478;28;20033;-58
2022/06/11 00:33:06;;;;;;;4.72;3.88;;;23.50;68.00;;;;;;5031546;28;20445;-58
2022/06/11 00:35:34;;;;;;;4.72;3.95;;;23.40;68.00;;;;;;5029270;28;20025;-58
2022/06/11 00:38:00;;;;;;;6.43;4.90;;;23.40;68.00;;;;;;5031677;28;20026;-58
2022/06/11 00:40:28;;;;;;;7.78;5.35;;;23.40;68.20;;;;;;5029476;28;20029;-58
2022/06/11 00:42:54;;;;;;;5.68;4.00;;;23.40;68.10;;;;;;5025097;28;20033;-58
2022/06/11 00:45:42;;;;;;;4.53;3.65;;;23.40;67.90;;;;;;5021942;28;20050;-58
2022/06/11 00:48:33;;;;;;;6.40;4.88;;;23.40;67.90;;;;;;5023174;28;20061;-58
2022/06/11 00:51:12;;;;;;;6.97;4.72;;;23.40;68.40;;;;;;5021135;28;20128;-58
2022/06/11 00:53:46;;;;;;;6.25;4.80;;;23.40;68.80;;;;;;5028409;28;20025;-58
2022/06/11 00:56:18;;;;;;;5.65;4.78;;;23.40;68.90;;;;;;5028448;28;20139;-57
2022/06/11 00:58:47;;;;;;;7.60;5.70;;;23.40;68.90;;;;;;5024272;28;20025;-58
2022/06/11 01:01:15;;;;;;;9.32;6.43;;;23.40;68.80;;;;;;5029161;28;20036;-58
2022/06/11 01:03:43;;;;;;;8.73;6.80;;;23.30;68.80;;;;;;5030258;28;20065;-58
2022/06/11 01:06:29;;;;;;;6.68;5.25;;;23.30;68.70;;;;;;5018471;28;20033;-58
2022/06/11 01:09:26;;;;;;;5.90;5.05;;;23.30;68.80;;;;;;5030469;28;20029;-58
2022/06/11 01:12:02;;;;;;;5.78;4.25;;;23.30;68.60;;;;;;5025231;28;20036;-58
2022/06/11 01:14:37;;;;;;;6.60;5.20;;;23.30;68.60;;;;;;5027438;28;20052;-58
2022/06/11 01:17:10;;;;;;;5.50;4.80;;;23.30;68.60;;;;;;5021342;28;20056;-58
2022/06/11 01:20:20;;;;;;;6.70;5.00;;;23.30;68.60;;;;;;5027462;28;20481;-58
2022/06/11 01:23:10;;;;;;;5.97;4.80;;;23.20;68.40;;;;;;5017735;28;20045;-58
2022/06/11 01:26:04;;;;;;;5.13;3.67;;;23.20;68.30;;;;;;5024378;28;20029;-58
2022/06/11 01:28:57;;;;;;;4.07;3.60;;;23.10;67.80;;;;;;5023896;28;20029;-58
2022/06/11 01:31:29;;;;;;;5.85;4.30;;;23.10;67.70;;;;;;5022455;28;20025;-58
2022/06/11 01:34:32;;;;;;;6.30;4.22;;;23.00;67.40;;;;;;5030656;28;20030;-58
2022/06/11 01:37:13;;;;;;;5.18;3.90;;;23.00;67.30;;;;;;5026679;28;20032;-58
2022/06/11 01:39:42;;;;;;;4.38;3.80;;;23.00;67.10;;;;;;5046449;28;20030;-58
2022/06/11 01:42:27;;;;;;;4.63;4.00;;;22.90;66.90;;;;;;5021240;28;20068;-56
2022/06/11 01:45:28;;;;;;;7.93;5.07;;;22.90;66.80;;;;;;5032913;28;20045;-58
2022/06/11 01:47:55;;;;;;;5.50;4.53;;;22.90;66.60;;;;;;5027168;28;20053;-58
2022/06/11 01:50:24;;;;;;;6.15;4.53;;;22.80;66.50;;;;;;5023565;28;20474;-58
2022/06/11 01:53:14;;;;;;;4.25;3.65;;;22.80;66.50;;;;;;5031800;28;20029;-58
2022/06/11 01:56:04;;;;;;;5.70;4.10;;;22.80;66.50;;;;;;5031363;28;20041;-58
2022/06/11 01:58:48;;;;;;;5.22;4.03;;;22.70;66.40;;;;;;5030019;28;20057;-58
2022/06/11 02:01:32;;;;;;;5.00;4.35;;;22.70;66.40;;;;;;5024402;28;20021;-58
2022/06/11 02:04:22;;;;;;;6.13;4.70;;;22.70;66.40;;;;;;5033839;28;20104;-58
2022/06/11 02:07:29;;;;;;;4.70;3.85;;;22.70;66.40;;;;;;5034490;28;20022;-58
2022/06/11 02:10:19;;;;;;;4.60;3.90;;;22.70;66.50;;;;;;5047722;28;20057;-58
2022/06/11 02:13:14;;;;;;;6.15;4.60;;;22.70;66.50;;;;;;5032415;28;20492;-58
2022/06/11 02:15:49;;;;;;;6.15;4.40;;;22.70;66.60;;;;;;5023738;28;20041;-58
2022/06/11 02:18:18;;;;;;;7.25;4.43;;;22.70;66.70;;;;;;5032724;28;20022;-58
2022/06/11 02:20:55;;;;;;;6.32;4.75;;;22.80;66.90;;;;;;5033716;28;20057;-58
2022/06/11 02:23:35;;;;;;;4.50;3.70;;;22.70;66.90;;;;;;5020278;28;20026;-58
2022/06/11 02:26:07;;;;;;;4.57;4.10;;;22.80;66.90;;;;;;5027506;28;20366;-58
2022/06/11 02:28:38;;;;;;;5.75;4.15;;;22.80;67.00;;;;;;5030105;28;20042;-58
2022/06/11 02:31:07;;;;;;;4.45;4.03;;;22.80;67.20;;;;;;5031612;28;20095;-58
2022/06/11 02:33:35;;;;;;;6.07;4.80;;;22.80;67.50;;;;;;5026801;28;20040;-58
2022/06/11 02:36:14;;;;;;;6.95;5.03;;;22.80;67.60;;;;;;5016878;28;20032;-58
2022/06/11 02:38:40;;;;;;;10.80;6.95;;;22.90;67.50;;;;;;5030584;28;20053;-58
2022/06/11 02:41:12;;;;;;;8.05;6.20;;;22.90;66.90;;;;;;5035416;28;20036;-58
2022/06/11 02:43:38;;;;;;;9.13;6.28;;;22.90;66.50;;;;;;5030576;28;20033;-58
2022/06/11 02:46:41;;;;;;;7.38;5.75;;;23.00;66.30;;;;;;5033824;28;20408;-58
2022/06/11 02:48:51;;;;;;;7.28;5.82;;;23.00;66.00;;;;;;5036357;28;20536;-58
2022/06/11 02:51:18;;;;;;;6.78;5.53;;;23.10;65.80;;;;;;5033820;28;20068;-58
2022/06/11 02:53:44;;;;;;;5.85;5.18;;;23.10;65.70;;;;;;5032769;28;20049;-58
2022/06/11 02:56:11;;;;;;;7.10;5.07;;;23.20;65.40;;;;;;5032204;28;20049;-58
2022/06/11 02:58:37;;;;;;;7.80;5.68;;;23.20;65.40;;;;;;5027748;28;20468;-58
2022/06/11 03:01:03;;;;;;;6.70;5.20;;;23.30;65.70;;;;;;5029982;28;20052;-58
2022/06/11 03:03:29;;;;;;;4.95;4.30;;;23.30;65.60;;;;;;5034270;28;20022;-58
2022/06/11 03:05:54;;;;;;;5.30;4.28;;;23.40;65.70;;;;;;5030604;28;20083;-58
2022/06/11 03:08:21;;;;;;;5.90;4.55;;;23.40;65.50;;;;;;5032828;28;20029;-58
2022/06/11 03:10:54;;;;;;;7.75;5.35;;;23.50;65.80;;;;;;5022064;28;20038;-58
2022/06/11 03:13:30;;;;;;;6.25;5.18;;;23.50;65.80;;;;;;5026911;28;20037;-58
2022/06/11 03:15:57;;;;;;;6.32;5.63;;;23.60;65.40;;;;;;5032205;28;20029;-58
2022/06/11 03:18:23;;;;;;;7.07;5.15;;;23.70;65.10;;;;;;5025795;28;20022;-58
2022/06/11 03:20:51;;;;;;;6.22;4.60;;;23.70;65.00;;;;;;5030341;28;20392;-58
2022/06/11 03:23:17;;;;;;;6.53;4.97;;;23.80;65.10;;;;;;5030183;28;20025;-58
2022/06/11 03:25:43;;;;;;;6.72;5.63;;;23.90;65.20;;;;;;5025133;28;20029;-58
2022/06/11 03:28:16;;;;;;;5.90;4.93;;;23.90;65.20;;;;;;5029197;28;20036;-58
2022/06/11 03:30:42;;;;;;;6.88;5.35;;;24.00;65.10;;;;;;5021955;28;20041;-58
2022/06/11 03:33:08;;;;;;;6.57;4.70;;;24.20;65.50;;;;;;5029416;28;20060;-58
2022/06/11 03:35:34;;;;;;;5.97;4.20;;;24.50;65.70;;;;;;5029394;28;20438;-58
2022/06/11 03:38:01;;;;;;;6.10;4.47;;;24.80;65.90;;;;;;5032696;28;20075;-58
2022/06/11 03:40:27;;;;;;;5.30;4.18;;;25.30;65.00;;;;;;5031806;28;20466;-56
2022/06/11 03:42:53;;;;;;;6.50;4.63;;;25.70;65.10;;;;;;5027345;28;20118;-58
2022/06/11 03:45:19;;;;;;;4.75;3.88;;;26.40;64.20;;;;;;5026211;28;20456;-58
2022/06/11 03:47:45;;;;;;;5.43;3.92;;;27.20;63.10;;;;;;5032746;28;20507;-58
2022/06/11 03:50:25;;;;;;;5.90;4.35;;;28.10;62.10;;;;;;5035179;28;20493;-58
2022/06/11 03:52:50;;;;;;;5.43;3.93;;;29.10;60.60;;;;;;5022999;28;20033;-58
2022/06/11 03:55:16;;;;;;;6.03;4.35;;;30.10;59.70;;;;;;5024873;28;20324;-58
2022/06/11 03:57:44;;;;;;;6.75;4.30;;;30.90;57.80;;;;;;5021528;28;20041;-58
2022/06/11 04:00:12;;;;;;;4.07;3.03;;;31.50;56.00;;;;;;5025364;28;20060;-58
2022/06/11 04:02:38;;;;;;;4.35;3.38;;;32.10;55.40;;;;;;5029833;28;20034;-58
2022/06/11 04:05:05;;;;;;;5.03;3.72;;;32.70;55.10;;;;;;5032509;28;20034;-58
2022/06/11 04:07:31;;;;;;;6.05;3.80;;;33.50;54.80;;;;;;5032934;28;20060;-59
2022/06/11 04:09:58;;;;;;;4.80;3.63;;;34.30;53.30;;;;;;5029519;28;20042;-58
2022/06/11 04:12:24;;;;;;;5.80;4.07;;;35.00;52.50;;;;;;5033476;28;20043;-58
2022/06/11 04:14:50;;;;;;;5.07;3.72;;;35.70;51.30;;;;;;5028982;28;20062;-58
2022/06/11 04:17:30;;;;;;;3.45;2.95;;;36.10;50.20;;;;;;5032019;28;20021;-57
2022/06/11 04:19:55;;;;;;;;;;;36.80;50.10;;;;;;5021806;28;20768;-58
2022/06/11 04:22:21;;;;;;;7.50;3.95;;;37.40;47.80;;;;;;5031808;28;19909;-58
2022/06/11 04:24:49;;;;;;;6.35;3.20;;;37.90;48.90;;;;;;5029912;28;20079;-58
2022/06/11 04:27:16;;;;;;;3.97;3.40;;;38.20;48.20;;;;;;5026554;28;20025;-58
2022/06/11 04:29:47;;;;;;;12.63;4.30;;;38.50;47.50;;;;;;5030634;28;20033;-58
2022/06/11 04:32:15;;;;;;;13.75;3.85;;;38.90;47.00;;;;;;5025556;28;20520;-58
2022/06/11 04:34:43;;;;;;;5.00;3.33;;;39.30;46.50;;;;;;5029733;28;20068;-58
2022/06/11 04:37:13;;;;;;;15.98;3.65;;;39.80;46.30;;;;;;5029561;28;20047;-57
2022/06/11 04:39:44;;;;;;;63.22;10.98;;;40.10;45.60;;;;;;5031330;28;20060;-59
2022/06/11 04:42:11;;;;;;;252.45;27.50;;;40.20;44.10;;;;;;5020641;28;20022;-59
2022/06/11 04:44:39;;;;;;;53.40;8.63;;;40.00;43.60;;;;;;5029303;28;20405;-59
2022/06/11 04:47:07;;;;;;;23.25;5.43;;;39.70;43.30;;;;;;5031092;28;20040;-58
2022/06/11 04:49:33;;;;;;;6.40;4.25;;;39.60;43.50;;;;;;5026556;28;20025;-58
2022/06/11 04:51:58;;;;;;;13.00;4.55;;;39.60;43.20;;;;;;5029599;28;20112;-58
2022/06/11 04:54:24;;;;;;;5.93;3.55;;;39.80;42.90;;;;;;5030470;28;20481;-58
2022/06/11 04:56:50;;;;;;;6.45;4.00;;;40.00;42.70;;;;;;5021298;28;20026;-58
2022/06/11 04:59:16;;;;;;;6.55;3.97;;;40.30;42.30;;;;;;5030830;28;20026;-58
2022/06/11 05:01:43;;;;;;;5.28;3.95;;;40.50;41.80;;;;;;5020531;28;20033;-58
2022/06/11 05:04:10;;;;;;;4.35;3.47;;;40.90;41.60;;;;;;5030017;28;20029;-58
2022/06/11 05:06:39;;;;;;;6.85;4.50;;;41.00;41.20;;;;;;5024884;28;20042;-58
2022/06/11 05:09:06;;;;;;;5.07;3.72;;;41.20;41.00;;;;;;5029541;28;20481;-58
2022/06/11 05:11:32;;;;;;;4.68;3.50;;;41.30;40.70;;;;;;5034117;28;20056;-58
2022/06/11 05:13:58;;;;;;;6.88;3.90;;;41.40;40.40;;;;;;5023201;28;20038;-58
2022/06/11 05:16:25;;;;;;;5.30;3.83;;;41.40;40.20;;;;;;5034817;28;20370;-58
2022/06/11 05:18:51;;;;;;;5.53;3.60;;;41.60;39.80;;;;;;5031002;28;20056;-58
2022/06/11 05:21:18;;;;;;;4.70;3.45;;;41.50;39.10;;;;;;5026913;28;20039;-58
2022/06/11 05:23:44;;;;;;;5.63;4.10;;;41.30;38.80;;;;;;5021997;28;20033;-58
2022/06/11 05:26:18;;;;;;;5.20;3.80;;;40.80;38.60;;;;;;5019766;28;20083;-57
2022/06/11 05:28:45;;;;;;;6.00;3.88;;;40.10;38.80;;;;;;5033245;28;20029;-58
2022/06/11 05:31:11;;;;;;;4.57;3.70;;;39.30;39.10;;;;;;5032494;28;20090;-58
2022/06/11 05:33:37;;;;;;;5.38;3.90;;;38.40;39.60;;;;;;5027530;28;20057;-58
2022/06/11 05:36:04;;;;;;;5.93;3.90;;;37.50;40.20;;;;;;5022658;28;20057;-58
2022/06/11 05:38:30;;;;;;;6.50;4.35;;;36.60;40.80;;;;;;5029109;28;20060;-58
2022/06/11 05:40:56;;;;;;;5.05;3.97;;;35.80;41.50;;;;;;5028912;28;20049;-58
2022/06/11 05:43:22;;;;;;;6.15;4.20;;;35.10;42.30;;;;;;5021493;28;20088;-58
2022/06/11 05:46:17;;;;;;;8.27;4.55;;;34.40;42.80;;;;;;5029493;28;20513;-59
2022/06/11 05:48:47;;;;;;;7.35;4.47;;;33.80;43.50;;;;;;5024508;28;20042;-58
2022/06/11 05:51:20;;;;;;;5.97;4.50;;;33.20;43.80;;;;;;5033020;28;20650;-57
2022/06/11 05:53:48;;;;;;;5.72;4.25;;;32.60;44.50;;;;;;5033905;28;20116;-58
2022/06/11 05:56:15;;;;;;;5.05;4.40;;;32.10;45.40;;;;;;5032744;28;20029;-58
2022/06/11 05:58:48;;;;;;;6.95;4.47;;;31.70;45.90;;;;;;5031541;28;20025;-58
2022/06/11 06:01:17;;;;;;;7.80;5.35;;;31.30;46.70;;;;;;5025789;28;20025;-58
2022/06/11 06:03:46;;;;;;;6.00;4.57;;;31.00;47.20;;;;;;5032338;28;20029;-58
2022/06/11 06:06:12;;;;;;;6.00;4.65;;;30.70;47.70;;;;;;5033702;28;20030;-58
2022/06/11 06:08:37;;;;;;;5.93;4.68;;;30.50;48.20;;;;;;5034562;28;20764;-58
2022/06/11 06:11:03;;;;;;;5.00;4.22;;;30.40;48.70;;;;;;5028355;28;20017;-58
2022/06/11 06:13:47;;;;;;;5.70;4.88;;;30.20;49.00;;;;;;5025831;28;20064;-58
2022/06/11 06:16:17;;;;;;;6.43;4.47;;;30.00;49.40;;;;;;5026675;28;20045;-58
2022/06/11 06:18:43;;;;;;;6.25;4.75;;;29.90;49.80;;;;;;5033725;28;20071;-58
2022/06/11 06:21:10;;;;;;;5.72;4.75;;;29.70;50.20;;;;;;5024555;28;20176;-58
2022/06/11 06:23:36;;;;;;;5.30;4.43;;;29.60;50.50;;;;;;5033519;28;20032;-58
2022/06/11 06:26:02;;;;;;;8.02;4.90;;;29.40;50.70;;;;;;5025818;28;20437;-58
2022/06/11 06:28:27;;;;;;;5.75;4.53;;;29.30;51.10;;;;;;5023810;28;20026;-58
2022/06/11 06:30:53;;;;;;;5.40;4.50;;;29.20;51.50;;;;;;5029323;28;20056;-59
2022/06/11 06:33:19;;;;;;;7.05;5.07;;;29.10;51.70;;;;;;5034467;28;20485;-58
2022/06/11 06:35:44;;;;;;;7.35;4.78;;;29.00;52.00;;;;;;5032223;28;20017;-58
2022/06/11 06:38:10;;;;;;;6.82;5.07;;;28.90;52.40;;;;;;5022931;28;20025;-58
2022/06/11 06:40:36;;;;;;;6.32;4.95;;;28.80;52.70;;;;;;5027830;28;20108;-58
2022/06/11 06:43:03;;;;;;;7.63;5.35;;;28.70;53.20;;;;;;5033773;28;20579;-58
2022/06/11 06:45:28;;;;;;;6.88;5.13;;;28.60;53.40;;;;;;5024336;28;20414;-58
2022/06/11 06:47:54;;;;;;;7.70;5.30;;;28.60;53.70;;;;;;5025171;28;20033;-57
2022/06/11 06:50:20;;;;;;;7.65;5.40;;;28.50;54.00;;;;;;5022243;28;20136;-58
2022/06/11 06:52:46;;;;;;;6.45;5.30;;;28.50;54.20;;;;;;5033490;28;20025;-59
2022/06/11 06:55:13;;;;;;;7.15;5.30;;;28.40;54.40;;;;;;5030581;28;20030;-59
2022/06/11 06:57:39;;;;;;;6.55;5.65;;;28.30;54.50;;;;;;5031309;28;20026;-59
2022/06/11 07:00:07;;;;;;;7.93;5.30;;;28.20;55.30;;;;;;5023937;28;20434;-59
2022/06/11 07:02:33;;;;;;;6.80;5.82;;;28.20;55.00;;;;;;5029069;28;20061;-59
2022/06/11 07:04:59;;;;;;;7.18;5.55;;;28.10;55.20;;;;;;5022900;28;20033;-59
2022/06/11 07:07:25;;;;;;;8.18;6.13;;;28.10;55.30;;;;;;5021895;28;20025;-59
2022/06/11 07:09:56;;;;;;;7.20;6.28;;;28.10;55.10;;;;;;5031745;28;20693;-59
2022/06/11 07:12:22;;;;;;;;;;;28.00;55.20;;;;;;5032653;28;20065;-59
2022/06/11 07:14:47;;;;;;;7.15;5.63;;;28.00;54.50;;;;;;5032451;28;19949;-59
2022/06/11 07:17:14;;;;;;;7.43;5.85;;;28.00;54.50;;;;;;5023495;28;20048;-59
2022/06/11 07:19:55;;;;;;;8.50;6.40;;;28.00;54.00;;;;;;5032695;28;20381;-59
2022/06/11 07:22:31;;;;;;;6.72;5.38;;;28.00;53.10;;;;;;5033455;28;20389;-59
2022/06/11 07:25:00;;;;;;;7.97;5.65;;;28.00;53.00;;;;;;5024597;28;20476;-59
2022/06/11 07:27:28;;;;;;;7.20;5.03;;;28.00;52.80;;;;;;5027986;28;20069;-59
2022/06/11 07:30:02;;;;;;;7.55;4.60;;;28.00;52.10;;;;;;5026898;28;20490;-59
2022/06/11 07:32:35;;;;;;;6.70;5.05;;;28.00;51.50;;;;;;5030983;28;20021;-59
2022/06/11 07:35:05;;;;;;;6.18;5.22;;;27.90;51.60;;;;;;5030372;28;20388;-59
2022/06/11 07:37:33;;;;;;;6.05;4.72;;;27.90;51.70;;;;;;5021937;28;20049;-59
2022/06/11 07:39:59;;;;;;;8.98;5.05;;;27.90;51.70;;;;;;5022862;28;20033;-59
2022/06/11 07:42:25;;;;;;;9.50;6.68;;;27.90;51.50;;;;;;5032988;28;20026;-59
2022/06/11 07:44:51;;;;;;;8.00;5.97;;;27.90;51.40;;;;;;5032375;28;20128;-59
2022/06/11 07:47:53;;;;;;;7.60;4.80;;;27.90;51.70;;;;;;5027546;28;20037;-59
2022/06/11 07:50:03;;;;;;;6.90;5.07;;;27.90;51.60;;;;;;5028524;28;20032;-59
2022/06/11 07:52:29;;;;;;;6.10;4.55;;;27.80;51.60;;;;;;5032014;28;20055;-59
2022/06/11 07:54:55;;;;;;;7.07;5.38;;;27.80;51.70;;;;;;5031366;28;20025;-59
2022/06/11 07:57:20;;;;;;;9.50;5.88;;;27.80;52.30;;;;;;5025690;28;20029;-59
2022/06/11 07:59:46;;;;;;;7.28;5.18;;;27.80;52.90;;;;;;5031400;28;20026;-59
2022/06/11 08:02:12;;;;;;;8.07;5.97;;;27.80;53.50;;;;;;5031351;28;20048;-59
2022/06/11 08:04:38;;;;;;;7.75;5.65;;;27.80;53.70;;;;;;5023171;28;20022;-59
2022/06/11 08:07:04;;;;;;;8.05;6.07;;;27.80;53.90;;;;;;5029738;28;20037;-58
2022/06/11 08:09:30;;;;;;;8.05;5.72;;;27.80;54.30;;;;;;5029159;28;20025;-58
2022/06/11 08:11:56;;;;;;;6.82;5.95;;;27.80;54.40;;;;;;5026957;28;20108;-59
2022/06/11 08:14:22;;;;;;;8.45;6.78;;;27.80;54.70;;;;;;5030053;28;20613;-59
2022/06/11 08:16:48;;;;;;;9.18;5.72;;;27.80;54.70;;;;;;5030028;28;20508;-59
2022/06/11 08:19:14;;;;;;;6.80;5.25;;;27.70;55.00;;;;;;5024945;28;20029;-59
2022/06/11 08:21:41;;;;;;;8.82;5.50;;;27.70;54.70;;;;;;5030217;28;20029;-59
2022/06/11 08:24:07;;;;;;;8.48;5.72;;;27.70;54.70;;;;;;5031207;28;20087;-59
2022/06/11 08:26:34;;;;;;;18.58;9.35;;;27.60;59.20;;;;;;5029127;28;20034;-62
2022/06/11 08:29:00;;;;;;;9.82;7.28;;;27.20;65.00;;;;;;5031307;28;20705;-61
2022/06/11 08:31:26;;;;;;;10.05;8.10;;;26.70;67.70;;;;;;5023062;28;20462;-61
2022/06/11 08:33:52;;;;;;;10.57;7.90;;;26.20;70.40;;;;;;5028653;28;20116;-61
2022/06/11 08:36:17;;;;;;;9.60;7.75;;;25.70;71.40;;;;;;5026784;28;20497;-61
2022/06/11 08:38:43;;;;;;;8.23;6.65;;;25.30;71.60;;;;;;5026386;28;20108;-61
2022/06/11 08:41:19;;;;;;;9.35;7.47;;;25.00;72.70;;;;;;5027239;28;20017;-61
2022/06/11 08:44:07;;;;;;;6.88;5.57;;;24.70;72.90;;;;;;5028988;28;20025;-60
2022/06/11 08:46:36;;;;;;;8.93;6.80;;;24.40;72.10;;;;;;5025534;28;20081;-60
2022/06/11 08:49:08;;;;;;;8.25;6.45;;;24.20;73.70;;;;;;5028559;28;20064;-61
2022/06/11 08:51:39;;;;;;;7.43;5.88;;;24.10;74.40;;;;;;5031383;28;20050;-61
2022/06/11 08:54:18;;;;;;;7.38;5.93;;;24.00;74.10;;;;;;5027407;28;20033;-60
2022/06/11 08:57:22;;;;;;;7.70;6.05;;;24.10;74.10;;;;;;5035906;28;20049;-60
2022/06/11 08:59:50;;;;;;;8.00;5.50;;;24.10;73.00;;;;;;5010445;28;20732;-61
2022/06/11 09:02:34;;;;;;;7.22;4.90;;;24.10;73.90;;;;;;5028374;28;20033;-61
2022/06/11 09:05:07;;;;;;;7.60;5.18;;;24.20;73.10;;;;;;5026466;28;20041;-61
2022/06/11 09:07:41;;;;;;;5.57;4.55;;;24.20;72.30;;;;;;5024666;28;20173;-61
2022/06/11 09:10:16;;;;;;;5.82;4.78;;;24.30;72.10;;;;;;5031378;28;20029;-61
2022/06/11 09:13:07;;;;;;;7.55;5.28;;;24.40;72.30;;;;;;5033861;28;20057;-61
2022/06/11 09:15:51;;;;;;;5.40;4.15;;;24.50;71.60;;;;;;5029545;28;20018;-60
2022/06/11 09:18:30;;;;;;;7.32;5.10;;;24.50;71.50;;;;;;5025267;28;20151;-61
2022/06/11 09:21:18;;;;;;;6.65;4.70;;;24.60;71.20;;;;;;5029702;28;20113;-60
2022/06/11 09:24:16;;;;;;;6.72;5.13;;;24.60;71.30;;;;;;5024897;28;20080;-60
2022/06/11 09:26:51;;;;;;;6.97;5.18;;;24.70;72.40;;;;;;5031220;28;20462;-61
2022/06/11 09:29:27;;;;;;;5.75;4.25;;;24.70;72.40;;;;;;5031182;28;20088;-60
2022/06/11 09:32:19;;;;;;;6.95;4.60;;;24.80;72.00;;;;;;5023231;28;20479;-60
2022/06/11 09:35:14;;;;;;;5.10;4.45;;;24.80;71.80;;;;;;5032040;28;20045;-61
2022/06/11 09:37:54;;;;;;;5.80;4.47;;;24.90;69.70;;;;;;5018465;28;20044;-60
2022/06/11 09:40:44;;;;;;;5.93;4.65;;;25.00;71.00;;;;;;5020706;28;20381;-61
2022/06/11 09:43:38;;;;;;;5.95;4.28;;;25.00;70.90;;;;;;5029780;28;20076;-60
2022/06/11 09:46:15;;;;;;;4.90;3.90;;;25.10;70.40;;;;;;5030178;28;20045;-60
2022/06/11 09:49:08;;;;;;;4.10;3.28;;;25.10;70.30;;;;;;5032772;28;20032;-60
2022/06/11 09:51:57;;;;;;;4.53;3.45;;;25.20;68.20;;;;;;5036144;28;20021;-60
2022/06/11 09:54:47;;;;;;;4.68;3.90;;;25.20;69.20;;;;;;5019236;28;20468;-60
2022/06/11 09:57:34;;;;;;;4.50;3.47;;;25.20;68.10;;;;;;5027904;28;20022;-59
2022/06/11 10:00:25;;;;;;;4.95;3.90;;;25.30;67.40;;;;;;5030561;28;20028;-59
2022/06/11 10:03:30;;;;;;;4.20;3.65;;;25.40;68.60;;;;;;5034338;28;20120;-59
2022/06/11 10:06:16;;;;;;;4.65;3.60;;;25.40;66.00;;;;;;5027261;28;20083;-60
2022/06/11 10:08:58;;;;;;;4.57;3.83;;;25.40;67.60;;;;;;5023125;28;20033;-60
2022/06/11 10:11:35;;;;;;;4.38;3.60;;;25.40;67.00;;;;;;5028143;28;20026;-60
2022/06/11 10:14:29;;;;;;;5.28;3.55;;;25.40;68.20;;;;;;5024379;28;20037;-60
2022/06/11 10:17:03;;;;;;;3.55;3.00;;;25.50;67.90;;;;;;5030573;28;20017;-60
2022/06/11 10:19:51;;;;;;;4.00;3.17;;;25.50;67.50;;;;;;5023197;28;20025;-60
2022/06/11 10:22:26;;;;;;;4.30;2.90;;;25.50;67.20;;;;;;5034733;28;20049;-60
2022/06/11 10:25:04;;;;;;;3.53;2.67;;;25.50;66.50;;;;;;5029377;28;20060;-60
2022/06/11 10:27:34;;;;;;;4.13;2.50;;;25.50;65.50;;;;;;5029214;28;20429;-60
2022/06/11 10:30:21;;;;;;;3.23;2.93;;;25.50;65.90;;;;;;5032611;28;20029;-60
2022/06/11 10:32:50;;;;;;;3.28;2.95;;;25.60;65.90;;;;;;5033031;28;20278;-59
2022/06/11 10:35:24;;;;;;;4.57;3.25;;;25.60;65.40;;;;;;5030483;28;20026;-60
2022/06/11 10:38:18;;;;;;;3.47;2.90;;;25.60;65.30;;;;;;5031781;28;20104;-59
2022/06/11 10:40:47;;;;;;;3.17;2.72;;;25.60;64.70;;;;;;5033664;28;20129;-59
2022/06/11 10:43:24;;;;;;;3.03;2.65;;;25.60;64.10;;;;;;5031855;28;20025;-60
2022/06/11 10:45:50;;;;;;;2.38;2.15;;;25.60;63.00;;;;;;5028930;28;20708;-60
2022/06/11 10:48:20;;;;;;;3.42;2.65;;;25.70;62.10;;;;;;5027633;28;20044;-59
2022/06/11 10:50:47;;;;;;;2.75;2.30;;;25.60;61.40;;;;;;5023092;28;20068;-60
2022/06/11 10:53:25;;;;;;;4.00;2.85;;;25.70;60.80;;;;;;5033925;28;20516;-60
2022/06/11 10:56:11;;;;;;;3.92;2.72;;;25.70;61.40;;;;;;5032143;28;20021;-60
2022/06/11 10:58:45;;;;;;;3.72;3.10;;;25.80;62.10;;;;;;5026491;28;20050;-59
2022/06/11 11:01:18;;;;;;;4.03;3.38;;;25.80;62.80;;;;;;5030374;28;20014;-59
2022/06/11 11:03:50;;;;;;;9.80;3.28;;;25.80;62.80;;;;;;5033643;28;20021;-59
2022/06/11 11:06:29;;;;;;;4.10;3.20;;;25.90;62.00;;;;;;5029682;28;20025;-60
2022/06/11 11:09:01;;;;;;;3.75;2.80;;;25.90;60.80;;;;;;5032267;28;20021;-60
2022/06/11 11:11:35;;;;;;;4.35;2.58;;;26.00;59.90;;;;;;5020915;28;20032;-60
2022/06/11 11:14:15;;;;;;;4.97;3.10;;;26.00;58.70;;;;;;5028151;28;20030;-59
2022/06/11 11:16:47;;;;;;;3.85;2.47;;;26.00;57.90;;;;;;5030680;28;20136;-59
2022/06/11 11:19:32;;;;;;;4.32;3.53;;;26.10;57.80;;;;;;5020499;28;20733;-60
2022/06/11 11:22:05;;;;;;;4.53;3.80;;;26.20;57.30;;;;;;5020635;28;20440;-60
2022/06/11 11:24:33;;;;;;;4.15;3.50;;;26.30;57.30;;;;;;5021933;28;20031;-59
2022/06/11 11:27:06;;;;;;;4.35;3.22;;;26.30;56.70;;;;;;5030975;28;20021;-59
2022/06/11 11:29:38;;;;;;;2.78;2.50;;;26.30;55.90;;;;;;5022043;28;20494;-60
2022/06/11 11:32:24;;;;;;;3.28;2.60;;;26.40;55.00;;;;;;5034035;28;20022;-60
2022/06/11 11:34:50;;;;;;;3.28;2.40;;;26.40;54.60;;;;;;5029475;28;20029;-59
2022/06/11 11:37:16;;;;;;;3.42;2.42;;;26.50;54.30;;;;;;5026320;28;20488;-59
2022/06/11 11:40:28;;;;;;;2.70;2.47;;;26.50;53.60;;;;;;5026892;28;20458;-60
2022/06/11 11:43:04;;;;;;;3.05;2.40;;;26.50;51.90;;;;;;5012679;28;20033;-60
2022/06/11 11:46:01;;;;;;;3.85;2.78;;;26.50;53.00;;;;;;5029305;28;20080;-59
2022/06/11 11:48:31;;;;;;;3.33;2.45;;;26.60;52.10;;;;;;5027416;28;20080;-60
2022/06/11 11:51:11;;;;;;;4.10;2.72;;;26.60;51.90;;;;;;5031988;28;20018;-60
2022/06/11 11:53:47;;;;;;;3.22;2.35;;;26.70;50.50;;;;;;5033034;28;20029;-59
2022/06/11 11:56:31;;;;;;;4.80;3.30;;;26.80;50.00;;;;;;5017606;28;20022;-60
2022/06/11 11:59:02;;;;;;;3.53;2.75;;;26.90;50.00;;;;;;5031036;28;20087;-60
2022/06/11 12:01:29;;;;;;;2.20;2.00;;;26.90;50.20;;;;;;5026965;28;20105;-59
2022/06/11 12:04:21;;;;;;;1.88;1.77;;;27.00;50.00;;;;;;5027506;28;20032;-60
2022/06/11 12:06:53;;;;;;;2.22;1.92;;;27.00;49.50;;;;;;5021732;28;20092;-59
2022/06/11 12:09:36;;;;;;;3.53;2.45;;;27.00;49.60;;;;;;5012157;28;20116;-59
2022/06/11 12:12:13;;;;;;;2.40;2.20;;;27.00;49.10;;;;;;5017025;28;20114;-60
2022/06/11 12:15:18;;;;;;;3.63;2.78;;;27.00;49.10;;;;;;5020256;28;20026;-60
2022/06/11 12:17:47;;;;;;;2.45;1.90;;;27.00;49.00;;;;;;5017167;28;20509;-60
2022/06/11 12:20:40;;;;;;;2.08;1.90;;;27.00;49.60;;;;;;5024281;28;20022;-60
2022/06/11 12:23:21;;;;;;;3.75;1.92;;;27.00;49.60;;;;;;5031907;28;20478;-59
2022/06/11 12:25:46;;;;;;;;;;;27.00;49.60;;;;;;5024770;28;20443;-59
2022/06/11 12:28:20;;;;;;;2.40;2.13;;;27.00;49.90;;;;;;5031573;28;19945;-60
2022/06/11 12:30:47;;;;;;;1.77;1.67;;;26.90;50.30;;;;;;5024311;28;20057;-59
2022/06/11 12:33:13;;;;;;;1.55;1.45;;;26.90;50.40;;;;;;5029716;28;20034;-59
2022/06/11 12:35:47;;;;;;;2.92;1.88;;;26.90;50.60;;;;;;5031921;28;20021;-60
2022/06/11 12:38:35;;;;;;;2.25;1.65;;;26.90;50.50;;;;;;5031732;28;20033;-60
2022/06/11 12:41:21;;;;;;;8.05;2.03;;;26.90;50.70;;;;;;5029516;28;20537;-60
2022/06/11 12:44:07;;;;;;;2.03;1.83;;;26.90;51.10;;;;;;5025437;28;20064;-60
2022/06/11 12:46:45;;;;;;;2.83;2.22;;;26.90;51.50;;;;;;5035856;28;20077;-60
2022/06/11 12:49:23;;;;;;;1.98;1.83;;;26.90;51.50;;;;;;5030467;28;20029;-60
2022/06/11 12:52:12;;;;;;;3.95;2.03;;;26.90;51.70;;;;;;5025267;28;20048;-60
2022/06/11 12:55:04;;;;;;;2.03;1.80;;;26.90;51.90;;;;;;5024061;28;20030;-60
2022/06/11 12:58:05;;;;;;;2.00;1.70;;;26.90;51.40;;;;;;5030408;28;20492;-60
2022/06/11 13:00:57;;;;;;;3.90;1.83;;;26.90;51.50;;;;;;5030723;28;20452;-58
2022/06/11 13:03:32;;;;;;;1.80;1.70;;;26.90;51.20;;;;;;5025873;28;20085;-60
2022/06/11 13:06:40;;;;;;;2.20;2.03;;;26.90;51.50;;;;;;5025905;28;20026;-60
2022/06/11 13:09:20;;;;;;;2.17;1.98;;;26.90;51.40;;;;;;5030243;28;20033;-60
2022/06/11 13:12:07;;;;;;;5.78;2.05;;;26.90;51.50;;;;;;5032455;28;20389;-59
2022/06/11 13:15:24;;;;;;;2.08;1.88;;;26.90;51.60;;;;;;5020356;28;20123;-60
2022/06/11 13:18:01;;;;;;;1.70;1.60;;;26.90;51.40;;;;;;5017420;28;20037;-60
2022/06/11 13:20:47;;;;;;;1.95;1.83;;;26.80;51.20;;;;;;5026751;28;20473;-59
2022/06/11 13:23:31;;;;;;;1.42;1.33;;;26.80;51.00;;;;;;5026708;28;20030;-60